createdAt,value
2023-04-07T00:00:34.717Z,980.94
2023-04-07T00:01:34.685Z,980.92
2023-04-07T00:02:34.650Z,980.94
2023-04-07T00:03:34.730Z,980.90
2023-04-07T00:04:34.581Z,980.96
2023-04-07T00:05:34.546Z,980.90
2023-04-07T00:06:34.573Z,980.88
2023-04-07T00:07:42.024Z,980.90
2023-04-07T00:08:35.485Z,980.89
2023-04-07T00:09:34.488Z,980.92
2023-04-07T00:10:34.495Z,980.92
2023-04-07T00:11:34.718Z,980.90
2023-04-07T00:12:34.518Z,980.87
2023-04-07T00:13:34.547Z,980.86
2023-04-07T00:14:34.499Z,980.84
2023-04-07T00:15:34.452Z,980.86
2023-04-07T00:16:34.400Z,980.86
2023-04-07T00:17:34.467Z,980.86
2023-04-07T00:18:34.418Z,980.87
2023-04-07T00:19:34.397Z,980.80
2023-04-07T00:20:34.452Z,980.83
2023-04-07T00:21:34.394Z,980.77
2023-04-07T00:22:34.382Z,980.80
2023-04-07T00:23:34.357Z,980.75
2023-04-07T00:24:34.938Z,980.80
2023-04-07T00:25:34.365Z,980.74
2023-04-07T00:26:34.335Z,980.81
2023-04-07T00:27:34.519Z,980.76
2023-04-07T00:28:34.281Z,980.70
2023-04-07T00:29:34.308Z,980.72
2023-04-07T00:30:34.272Z,980.68
2023-04-07T00:31:34.293Z,980.73
2023-04-07T00:32:35.346Z,980.71
2023-04-07T00:33:34.252Z,980.68
2023-04-07T00:34:34.228Z,980.68
2023-04-07T00:35:34.304Z,980.65
2023-04-07T00:36:34.175Z,980.69
2023-04-07T00:37:34.227Z,980.67
2023-04-07T00:38:34.160Z,980.69
2023-04-07T00:39:34.223Z,980.68
2023-04-07T00:40:34.304Z,980.72
2023-04-07T00:41:34.154Z,980.64
2023-04-07T00:42:34.173Z,980.64
2023-04-07T00:43:34.141Z,980.70
2023-04-07T00:44:34.116Z,980.64
2023-04-07T00:45:34.154Z,980.62
2023-04-07T00:46:34.128Z,980.57
2023-04-07T00:47:34.472Z,980.56
2023-04-07T00:48:34.348Z,980.59
2023-04-07T00:49:34.146Z,980.57
2023-04-07T00:50:34.026Z,980.51
2023-04-07T00:51:34.048Z,980.50
2023-04-07T00:52:34.076Z,980.50
2023-04-07T00:53:34.007Z,980.51
2023-04-07T00:54:33.982Z,980.50
2023-04-07T00:55:34.059Z,980.52
2023-04-07T00:56:33.959Z,980.47
2023-04-07T00:57:34.011Z,980.47
2023-04-07T00:58:33.974Z,980.49
2023-04-07T00:59:33.972Z,980.42
2023-04-07T01:00:33.917Z,980.46
2023-04-07T01:01:34.065Z,980.47
2023-04-07T01:02:34.176Z,980.47
2023-04-07T01:03:34.529Z,980.42
2023-04-07T01:04:34.030Z,980.43
2023-04-07T01:05:33.888Z,980.42
2023-04-07T01:06:33.845Z,980.41
2023-04-07T01:07:33.902Z,980.40
2023-04-07T01:08:34.081Z,980.36
2023-04-07T01:09:33.870Z,980.38
2023-04-07T01:10:33.913Z,980.34
2023-04-07T01:11:33.839Z,980.34
2023-04-07T01:12:33.841Z,980.31
2023-04-07T01:13:34.010Z,980.32
2023-04-07T01:14:33.850Z,980.30
2023-04-07T01:15:33.782Z,980.31
2023-04-07T01:16:33.793Z,980.30
2023-04-07T01:17:33.777Z,980.35
2023-04-07T01:18:33.751Z,980.28
2023-04-07T01:19:33.754Z,980.31
2023-04-07T01:20:33.706Z,980.30
2023-04-07T01:21:34.173Z,980.27
2023-04-07T01:22:33.669Z,980.28
2023-04-07T01:23:33.714Z,980.28
2023-04-07T01:24:33.712Z,980.26
2023-04-07T01:25:33.660Z,980.24
2023-04-07T01:26:33.719Z,980.24
2023-04-07T01:27:33.702Z,980.22
2023-04-07T01:28:33.673Z,980.23
2023-04-07T01:29:33.700Z,980.19
2023-04-07T01:30:33.617Z,980.23
2023-04-07T01:31:33.656Z,980.22
2023-04-07T01:32:33.655Z,980.25
2023-04-07T01:33:41.129Z,980.20
2023-04-07T01:34:33.521Z,980.20
2023-04-07T01:35:33.535Z,980.23
2023-04-07T01:36:33.532Z,980.21
2023-04-07T01:37:33.527Z,980.19
2023-04-07T01:38:33.529Z,980.20
2023-04-07T01:39:33.492Z,980.21
2023-04-07T01:40:33.547Z,980.22
2023-04-07T01:41:33.479Z,980.22
2023-04-07T01:42:34.078Z,980.20
2023-04-07T01:43:33.484Z,980.24
2023-04-07T01:44:33.434Z,980.22
2023-04-07T01:45:33.448Z,980.22
2023-04-07T01:46:33.461Z,980.21
2023-04-07T01:47:33.505Z,980.22
2023-04-07T01:48:33.389Z,980.20
2023-04-07T01:49:34.396Z,980.19
2023-04-07T01:50:33.351Z,980.14
2023-04-07T01:51:33.361Z,980.16
2023-04-07T01:52:33.422Z,980.18
2023-04-07T01:53:33.368Z,980.11
2023-04-07T01:54:33.307Z,980.12
2023-04-07T01:55:33.406Z,980.11
2023-04-07T01:56:33.285Z,980.10
2023-04-07T01:57:33.331Z,980.13
2023-04-07T01:58:33.288Z,980.07
2023-04-07T01:59:33.281Z,980.11
2023-04-07T02:00:33.245Z,980.10
2023-04-07T02:01:33.369Z,980.09
2023-04-07T02:02:34.287Z,980.08
2023-04-07T02:03:34.014Z,980.10
2023-04-07T02:04:33.218Z,980.09
2023-04-07T02:05:33.214Z,980.11
2023-04-07T02:06:33.310Z,980.10
2023-04-07T02:07:33.181Z,980.09
2023-04-07T02:08:33.245Z,980.10
2023-04-07T02:09:33.226Z,980.08
2023-04-07T02:10:33.248Z,980.08
2023-04-07T02:11:33.185Z,980.11
2023-04-07T02:12:33.141Z,980.07
2023-04-07T02:13:33.122Z,980.07
2023-04-07T02:14:33.160Z,980.10
2023-04-07T02:15:33.069Z,980.06
2023-04-07T02:16:33.106Z,980.08
2023-04-07T02:17:33.094Z,980.09
2023-04-07T02:18:33.077Z,980.14
2023-04-07T02:19:33.243Z,980.09
2023-04-07T02:20:33.070Z,980.07
2023-04-07T02:21:32.996Z,980.07
2023-04-07T02:22:33.024Z,980.04
2023-04-07T02:23:32.994Z,980.05
2023-04-07T02:24:33.080Z,980.04
2023-04-07T02:25:32.971Z,980.06
2023-04-07T02:26:34.874Z,980.02
2023-04-07T02:27:32.982Z,980.01
2023-04-07T02:28:32.945Z,980.01
2023-04-07T02:29:33.372Z,980.02
2023-04-07T02:30:33.020Z,980.03
2023-04-07T02:31:33.014Z,980.04
2023-04-07T02:32:32.949Z,980.01
2023-04-07T02:33:32.916Z,979.98
2023-04-07T02:34:32.880Z,980.03
2023-04-07T02:35:32.847Z,979.98
2023-04-07T02:36:32.991Z,980.03
2023-04-07T02:37:32.815Z,980.01
2023-04-07T02:38:32.853Z,980.01
2023-04-07T02:39:32.831Z,980.02
2023-04-07T02:40:32.840Z,980.02
2023-04-07T02:41:32.788Z,980.06
2023-04-07T02:42:32.799Z,980.00
2023-04-07T02:43:32.770Z,979.98
2023-04-07T02:44:32.805Z,980.01
2023-04-07T02:45:32.752Z,979.98
2023-04-07T02:46:32.786Z,979.99
2023-04-07T02:47:32.751Z,979.99
2023-04-07T02:48:32.741Z,980.01
2023-04-07T02:49:32.697Z,979.99
2023-04-07T02:50:33.545Z,979.98
2023-04-07T02:51:32.710Z,980.01
2023-04-07T02:52:32.680Z,979.97
2023-04-07T02:53:32.675Z,979.96
2023-04-07T02:54:32.691Z,979.97
2023-04-07T02:55:32.705Z,979.97
2023-04-07T02:56:32.723Z,979.99
2023-04-07T02:57:32.601Z,980.00
2023-04-07T02:58:32.626Z,979.98
2023-04-07T02:59:32.577Z,979.94
2023-04-07T03:00:32.587Z,979.94
2023-04-07T03:01:32.634Z,979.99
2023-04-07T03:02:32.762Z,979.94
2023-04-07T03:03:32.591Z,979.92
2023-04-07T03:04:32.585Z,979.95
2023-04-07T03:05:32.548Z,979.92
2023-04-07T03:06:32.549Z,979.92
2023-04-07T03:07:32.476Z,979.96
2023-04-07T03:08:32.483Z,979.94
2023-04-07T03:09:32.497Z,979.94
2023-04-07T03:10:32.503Z,979.90
2023-04-07T03:11:32.517Z,979.91
2023-04-07T03:12:32.506Z,979.91
2023-04-07T03:13:32.411Z,979.91
2023-04-07T03:14:32.431Z,979.93
2023-04-07T03:15:32.508Z,979.88
2023-04-07T03:16:32.440Z,979.89
2023-04-07T03:17:32.450Z,979.86
2023-04-07T03:18:32.417Z,979.87
2023-04-07T03:19:32.337Z,979.88
2023-04-07T03:20:32.374Z,979.89
2023-04-07T03:21:32.327Z,979.91
2023-04-07T03:22:32.410Z,979.86
2023-04-07T03:23:32.309Z,979.87
2023-04-07T03:24:32.332Z,979.91
2023-04-07T03:25:33.072Z,979.91
2023-04-07T03:26:32.360Z,979.89
2023-04-07T03:27:32.265Z,979.88
2023-04-07T03:28:32.257Z,979.88
2023-04-07T03:29:32.267Z,979.89
2023-04-07T03:30:32.299Z,979.88
2023-04-07T03:31:32.240Z,979.93
2023-04-07T03:32:32.304Z,979.90
2023-04-07T03:33:32.195Z,979.92
2023-04-07T03:34:32.206Z,979.88
2023-04-07T03:35:32.208Z,979.91
2023-04-07T03:36:32.193Z,979.88
2023-04-07T03:37:32.155Z,979.89
2023-04-07T03:38:32.155Z,979.86
2023-04-07T03:39:32.187Z,979.86
2023-04-07T03:40:32.136Z,979.86
2023-04-07T03:41:32.087Z,979.90
2023-04-07T03:42:32.138Z,979.84
2023-04-07T03:43:32.080Z,979.85
2023-04-07T03:44:32.098Z,979.88
2023-04-07T03:45:32.594Z,979.84
2023-04-07T03:46:32.086Z,979.87
2023-04-07T03:47:32.083Z,979.86
2023-04-07T03:48:32.079Z,979.90
2023-04-07T03:49:31.994Z,979.92
2023-04-07T03:50:32.036Z,979.87
2023-04-07T03:51:32.901Z,979.89
2023-04-07T03:52:32.062Z,979.92
2023-04-07T03:53:31.989Z,979.89
2023-04-07T03:54:32.021Z,979.91
2023-04-07T03:55:31.965Z,979.88
2023-04-07T03:56:31.944Z,979.88
2023-04-07T03:57:32.345Z,979.89
2023-04-07T03:58:31.939Z,979.91
2023-04-07T03:59:31.885Z,979.90
2023-04-07T04:00:31.931Z,979.92
2023-04-07T04:01:31.901Z,979.89
2023-04-07T04:02:32.018Z,979.91
2023-04-07T04:03:32.021Z,979.87
2023-04-07T04:04:31.962Z,979.90
2023-04-07T04:05:32.832Z,979.90
2023-04-07T04:06:31.859Z,979.91
2023-04-07T04:07:31.802Z,979.94
2023-04-07T04:08:31.850Z,979.92
2023-04-07T04:09:31.783Z,979.95
2023-04-07T04:10:31.809Z,979.92
2023-04-07T04:11:31.786Z,979.95
2023-04-07T04:12:32.013Z,979.96
2023-04-07T04:13:31.753Z,980.00
2023-04-07T04:14:31.829Z,979.98
2023-04-07T04:15:31.729Z,979.98
2023-04-07T04:16:31.802Z,979.97
2023-04-07T04:17:31.737Z,980.00
2023-04-07T04:18:31.768Z,980.01
2023-04-07T04:19:31.677Z,979.98
2023-04-07T04:20:32.077Z,980.02
2023-04-07T04:21:31.648Z,980.00
2023-04-07T04:22:31.656Z,979.96
2023-04-07T04:23:31.663Z,980.00
2023-04-07T04:24:31.632Z,979.99
2023-04-07T04:25:32.447Z,980.01
2023-04-07T04:26:31.627Z,979.97
2023-04-07T04:27:31.660Z,979.95
2023-04-07T04:28:31.608Z,979.94
2023-04-07T04:29:32.901Z,980.01
2023-04-07T04:30:31.620Z,979.99
2023-04-07T04:31:31.612Z,979.97
2023-04-07T04:32:31.571Z,980.01
2023-04-07T04:33:32.424Z,979.97
2023-04-07T04:34:31.576Z,980.01
2023-04-07T04:35:31.498Z,979.97
2023-04-07T04:36:31.532Z,980.02
2023-04-07T04:37:31.497Z,979.95
2023-04-07T04:38:31.474Z,979.98
2023-04-07T04:39:31.448Z,980.04
2023-04-07T04:40:31.490Z,980.01
2023-04-07T04:41:31.444Z,979.99
2023-04-07T04:42:31.436Z,980.04
2023-04-07T04:43:31.412Z,980.02
2023-04-07T04:44:31.446Z,980.01
2023-04-07T04:45:31.412Z,980.03
2023-04-07T04:46:32.238Z,980.02
2023-04-07T04:47:31.601Z,980.05
2023-04-07T04:48:31.467Z,980.04
2023-04-07T04:49:31.370Z,980.04
2023-04-07T04:50:31.355Z,980.04
2023-04-07T04:51:31.349Z,980.04
2023-04-07T04:52:31.331Z,980.06
2023-04-07T04:53:32.059Z,980.04
2023-04-07T04:54:31.324Z,980.08
2023-04-07T04:55:31.343Z,980.10
2023-04-07T04:56:31.276Z,980.09
2023-04-07T04:57:31.239Z,980.08
2023-04-07T04:58:31.256Z,980.07
2023-04-07T04:59:31.263Z,980.10
2023-04-07T05:00:31.266Z,980.06
2023-04-07T05:01:33.369Z,980.10
2023-04-07T05:02:31.461Z,980.09
2023-04-07T05:03:31.418Z,980.13
2023-04-07T05:04:31.331Z,980.08
2023-04-07T05:05:31.155Z,980.14
2023-04-07T05:06:31.174Z,980.14
2023-04-07T05:07:31.158Z,980.14
2023-04-07T05:08:31.134Z,980.11
2023-04-07T05:09:31.140Z,980.15
2023-04-07T05:10:31.116Z,980.18
2023-04-07T05:11:31.098Z,980.19
2023-04-07T05:12:31.392Z,980.18
2023-04-07T05:13:31.706Z,980.20
2023-04-07T05:14:31.066Z,980.17
2023-04-07T05:15:31.102Z,980.16
2023-04-07T05:16:31.102Z,980.19
2023-04-07T05:17:31.036Z,980.23
2023-04-07T05:18:31.021Z,980.22
2023-04-07T05:19:31.102Z,980.22
2023-04-07T05:20:31.004Z,980.17
2023-04-07T05:21:30.997Z,980.23
2023-04-07T05:22:31.086Z,980.27
2023-04-07T05:23:30.971Z,980.22
2023-04-07T05:24:31.031Z,980.23
2023-04-07T05:25:30.998Z,980.26
2023-04-07T05:26:30.939Z,980.25
2023-04-07T05:27:30.972Z,980.24
2023-04-07T05:28:30.961Z,980.25
2023-04-07T05:29:30.967Z,980.28
2023-04-07T05:30:30.911Z,980.26
2023-04-07T05:31:30.957Z,980.31
2023-04-07T05:32:30.932Z,980.31
2023-04-07T05:33:30.855Z,980.33
2023-04-07T05:34:30.843Z,980.28
2023-04-07T05:35:30.836Z,980.34
2023-04-07T05:36:30.894Z,980.29
2023-04-07T05:37:30.904Z,980.32
2023-04-07T05:38:30.855Z,980.32
2023-04-07T05:39:30.818Z,980.34
2023-04-07T05:40:30.843Z,980.32
2023-04-07T05:41:30.784Z,980.30
2023-04-07T05:42:30.795Z,980.33
2023-04-07T05:43:30.743Z,980.33
2023-04-07T05:44:30.773Z,980.32
2023-04-07T05:45:30.735Z,980.39
2023-04-07T05:46:30.810Z,980.34
2023-04-07T05:47:30.713Z,980.34
2023-04-07T05:48:31.543Z,980.32
2023-04-07T05:49:30.794Z,980.35
2023-04-07T05:50:30.695Z,980.33
2023-04-07T05:51:30.666Z,980.36
2023-04-07T05:52:30.674Z,980.35
2023-04-07T05:53:30.684Z,980.36
2023-04-07T05:54:30.683Z,980.34
2023-04-07T05:55:30.653Z,980.34
2023-04-07T05:56:30.695Z,980.36
2023-04-07T05:57:30.650Z,980.35
2023-04-07T05:58:30.654Z,980.35
2023-04-07T05:59:30.578Z,980.34
2023-04-07T06:00:30.602Z,980.39
2023-04-07T06:01:30.566Z,980.35
2023-04-07T06:02:30.647Z,980.33
2023-04-07T06:03:30.717Z,980.34
2023-04-07T06:04:30.557Z,980.31
2023-04-07T06:05:30.566Z,980.33
2023-04-07T06:06:30.656Z,980.33
2023-04-07T06:07:30.499Z,980.35
2023-04-07T06:08:30.615Z,980.37
2023-04-07T06:09:30.482Z,980.38
2023-04-07T06:10:30.456Z,980.42
2023-04-07T06:11:30.438Z,980.38
2023-04-07T06:12:30.440Z,980.40
2023-04-07T06:13:30.416Z,980.40
2023-04-07T06:14:30.474Z,980.43
2023-04-07T06:15:31.415Z,980.41
2023-04-07T06:16:30.463Z,980.40
2023-04-07T06:17:30.388Z,980.44
2023-04-07T06:18:30.421Z,980.46
2023-04-07T06:19:30.455Z,980.46
2023-04-07T06:20:30.386Z,980.43
2023-04-07T06:21:30.411Z,980.45
2023-04-07T06:22:30.281Z,980.47
2023-04-07T06:23:30.387Z,980.48
2023-04-07T06:24:30.296Z,980.45
2023-04-07T06:25:30.429Z,980.46
2023-04-07T06:26:30.220Z,980.46
2023-04-07T06:27:30.487Z,980.45
2023-04-07T06:28:30.349Z,980.47
2023-04-07T06:29:30.291Z,980.48
2023-04-07T06:30:30.228Z,980.49
2023-04-07T06:31:30.345Z,980.50
2023-04-07T06:32:30.199Z,980.48
2023-04-07T06:33:30.205Z,980.51
2023-04-07T06:34:30.184Z,980.48
2023-04-07T06:35:30.232Z,980.49
2023-04-07T06:36:30.140Z,980.51
2023-04-07T06:37:30.131Z,980.50
2023-04-07T06:38:30.170Z,980.49
2023-04-07T06:39:30.178Z,980.48
2023-04-07T06:40:31.002Z,980.50
2023-04-07T06:41:30.154Z,980.57
2023-04-07T06:42:30.059Z,980.56
2023-04-07T06:43:30.207Z,980.58
2023-04-07T06:44:30.057Z,980.57
2023-04-07T06:45:30.061Z,980.59
2023-04-07T06:46:30.060Z,980.59
2023-04-07T06:47:30.121Z,980.62
2023-04-07T06:48:30.310Z,980.60
2023-04-07T06:49:30.088Z,980.61
2023-04-07T06:50:30.013Z,980.63
2023-04-07T06:51:30.026Z,980.63
2023-04-07T06:52:29.998Z,980.64
2023-04-07T06:53:29.997Z,980.63
2023-04-07T06:54:30.071Z,980.64
2023-04-07T06:55:30.011Z,980.65
2023-04-07T06:56:29.920Z,980.68
2023-04-07T06:57:29.916Z,980.66
2023-04-07T06:58:29.871Z,980.70
2023-04-07T06:59:29.931Z,980.66
2023-04-07T07:00:30.041Z,980.63
2023-04-07T07:01:29.951Z,980.64
2023-04-07T07:02:30.026Z,980.62
2023-04-07T07:03:29.942Z,980.62
2023-04-07T07:04:29.956Z,980.66
2023-04-07T07:05:30.550Z,980.67
2023-04-07T07:06:29.829Z,980.66
2023-04-07T07:07:29.818Z,980.67
2023-04-07T07:08:29.837Z,980.70
2023-04-07T07:09:29.766Z,980.68
2023-04-07T07:10:29.813Z,980.70
2023-04-07T07:11:29.760Z,980.72
2023-04-07T07:12:29.764Z,980.73
2023-04-07T07:13:29.795Z,980.78
2023-04-07T07:14:29.763Z,980.75
2023-04-07T07:15:29.813Z,980.78
2023-04-07T07:16:30.485Z,980.80
2023-04-07T07:17:29.728Z,980.83
2023-04-07T07:18:31.523Z,980.83
2023-04-07T07:19:29.664Z,980.81
2023-04-07T07:20:29.653Z,980.79
2023-04-07T07:21:29.846Z,980.80
2023-04-07T07:22:29.614Z,980.79
2023-04-07T07:23:29.627Z,980.81
2023-04-07T07:24:29.592Z,980.79
2023-04-07T07:25:29.747Z,980.84
2023-04-07T07:26:29.597Z,980.81
2023-04-07T07:27:29.622Z,980.82
2023-04-07T07:28:29.544Z,980.84
2023-04-07T07:29:29.561Z,980.85
2023-04-07T07:30:30.287Z,980.86
2023-04-07T07:31:29.663Z,980.80
2023-04-07T07:32:29.584Z,980.84
2023-04-07T07:33:29.558Z,980.86
2023-04-07T07:34:29.460Z,980.84
2023-04-07T07:35:29.511Z,980.86
2023-04-07T07:36:29.442Z,980.86
2023-04-07T07:37:29.496Z,980.87
2023-04-07T07:38:29.427Z,980.86
2023-04-07T07:39:29.486Z,980.88
2023-04-07T07:40:29.410Z,980.88
2023-04-07T07:41:29.534Z,980.92
2023-04-07T07:42:29.542Z,980.95
2023-04-07T07:43:29.492Z,980.91
2023-04-07T07:44:31.964Z,980.93
2023-04-07T07:45:29.473Z,980.95
2023-04-07T07:46:29.383Z,980.96
2023-04-07T07:47:29.536Z,980.96
2023-04-07T07:48:29.399Z,980.99
2023-04-07T07:49:29.375Z,981.00
2023-04-07T07:50:29.307Z,981.03
2023-04-07T07:51:29.399Z,981.00
2023-04-07T07:52:29.378Z,980.99
2023-04-07T07:53:29.373Z,980.99
2023-04-07T07:54:29.303Z,981.01
2023-04-07T07:55:29.291Z,981.00
2023-04-07T07:56:29.348Z,981.03
2023-04-07T07:57:29.294Z,981.02
2023-04-07T07:58:29.244Z,981.05
2023-04-07T07:59:29.226Z,981.02
2023-04-07T08:00:29.246Z,981.05
2023-04-07T08:01:29.252Z,981.04
2023-04-07T08:02:29.320Z,981.05
2023-04-07T08:03:29.362Z,981.06
2023-04-07T08:04:29.181Z,981.05
2023-04-07T08:05:29.195Z,981.05
2023-04-07T08:06:29.099Z,981.05
2023-04-07T08:07:29.239Z,981.05
2023-04-07T08:08:29.120Z,981.06
2023-04-07T08:09:29.166Z,981.09
2023-04-07T08:10:29.446Z,981.10
2023-04-07T08:11:29.129Z,981.11
2023-04-07T08:12:29.066Z,981.13
2023-04-07T08:13:29.072Z,981.15
2023-04-07T08:14:29.015Z,981.16
2023-04-07T08:15:29.059Z,981.20
2023-04-07T08:16:29.023Z,981.17
2023-04-07T08:17:29.035Z,981.16
2023-04-07T08:18:28.961Z,981.21
2023-04-07T08:19:29.015Z,981.17
2023-04-07T08:20:28.980Z,981.15
2023-04-07T08:21:28.982Z,981.19
2023-04-07T08:22:28.922Z,981.20
2023-04-07T08:23:28.944Z,981.19
2023-04-07T08:24:28.939Z,981.28
2023-04-07T08:25:28.912Z,981.22
2023-04-07T08:26:28.871Z,981.21
2023-04-07T08:27:28.895Z,981.24
2023-04-07T08:28:28.918Z,981.24
2023-04-07T08:29:30.619Z,981.25
2023-04-07T08:30:28.849Z,981.22
2023-04-07T08:31:29.511Z,981.25
2023-04-07T08:32:28.874Z,981.26
2023-04-07T08:33:28.821Z,981.30
2023-04-07T08:34:28.816Z,981.30
2023-04-07T08:35:28.853Z,981.29
2023-04-07T08:36:28.793Z,981.27
2023-04-07T08:37:28.761Z,981.30
2023-04-07T08:38:28.776Z,981.29
2023-04-07T08:39:28.759Z,981.32
2023-04-07T08:40:28.887Z,981.36
2023-04-07T08:41:28.824Z,981.31
2023-04-07T08:42:28.706Z,981.31
2023-04-07T08:43:28.734Z,981.35
2023-04-07T08:44:28.693Z,981.36
2023-04-07T08:45:28.713Z,981.37
2023-04-07T08:46:28.702Z,981.38
2023-04-07T08:47:28.912Z,981.32
2023-04-07T08:48:28.695Z,981.35
2023-04-07T08:49:28.636Z,981.37
2023-04-07T08:50:28.680Z,981.35
2023-04-07T08:51:28.697Z,981.37
2023-04-07T08:52:28.605Z,981.35
2023-04-07T08:53:28.690Z,981.37
2023-04-07T08:54:28.566Z,981.36
2023-04-07T08:55:28.597Z,981.37
2023-04-07T08:56:28.588Z,981.37
2023-04-07T08:57:28.586Z,981.39
2023-04-07T08:58:28.537Z,981.43
2023-04-07T08:59:28.656Z,981.43
2023-04-07T09:00:28.532Z,981.43
2023-04-07T09:01:28.590Z,981.43
2023-04-07T09:02:29.053Z,981.41
2023-04-07T09:03:28.572Z,981.45
2023-04-07T09:04:28.459Z,981.44
2023-04-07T09:05:28.595Z,981.47
2023-04-07T09:06:28.437Z,981.46
2023-04-07T09:07:28.444Z,981.48
2023-04-07T09:08:28.399Z,981.45
2023-04-07T09:09:28.439Z,981.47
2023-04-07T09:10:28.377Z,981.45
2023-04-07T09:11:28.418Z,981.45
2023-04-07T09:12:28.412Z,981.47
2023-04-07T09:13:28.445Z,981.46
2023-04-07T09:14:28.377Z,981.47
2023-04-07T09:15:28.359Z,981.49
2023-04-07T09:16:28.360Z,981.47
2023-04-07T09:17:28.372Z,981.52
2023-04-07T09:18:29.133Z,981.50
2023-04-07T09:19:28.308Z,981.57
2023-04-07T09:20:28.312Z,981.53
2023-04-07T09:21:28.983Z,981.56
2023-04-07T09:22:28.575Z,981.57
2023-04-07T09:23:28.577Z,981.58
2023-04-07T09:24:28.234Z,981.57
2023-04-07T09:25:28.335Z,981.59
2023-04-07T09:26:28.257Z,981.61
2023-04-07T09:27:28.208Z,981.58
2023-04-07T09:28:28.181Z,981.58
2023-04-07T09:29:28.243Z,981.58
2023-04-07T09:30:28.174Z,981.61
2023-04-07T09:31:28.193Z,981.58
2023-04-07T09:32:28.178Z,981.57
2023-04-07T09:33:28.207Z,981.58
2023-04-07T09:34:28.125Z,981.59
2023-04-07T09:35:28.157Z,981.58
2023-04-07T09:36:28.090Z,981.57
2023-04-07T09:37:28.198Z,981.59
2023-04-07T09:38:28.075Z,981.56
2023-04-07T09:39:28.076Z,981.59
2023-04-07T09:40:28.058Z,981.54
2023-04-07T09:41:28.116Z,981.56
2023-04-07T09:42:28.287Z,981.57
2023-04-07T09:43:28.048Z,981.57
2023-04-07T09:44:28.012Z,981.56
2023-04-07T09:45:34.626Z,981.63
2023-04-07T09:46:29.051Z,981.59
2023-04-07T09:47:28.001Z,981.61
2023-04-07T09:48:28.025Z,981.57
2023-04-07T09:49:27.963Z,981.63
2023-04-07T09:50:27.920Z,981.66
2023-04-07T09:51:27.947Z,981.59
2023-04-07T09:52:27.908Z,981.61
2023-04-07T09:53:27.916Z,981.64
2023-04-07T09:54:27.917Z,981.59
2023-04-07T09:55:27.906Z,981.58
2023-04-07T09:56:27.863Z,981.62
2023-04-07T09:57:27.913Z,981.63
2023-04-07T09:58:27.850Z,981.65
2023-04-07T09:59:27.857Z,981.60
2023-04-07T10:00:27.913Z,981.61
2023-04-07T10:01:27.932Z,981.65
2023-04-07T10:02:28.707Z,981.67
2023-04-07T10:03:27.943Z,981.64
2023-04-07T10:04:27.837Z,981.64
2023-04-07T10:05:27.800Z,981.64
2023-04-07T10:06:27.824Z,981.64
2023-04-07T10:07:27.788Z,981.62
2023-04-07T10:08:27.760Z,981.67
2023-04-07T10:09:27.852Z,981.66
2023-04-07T10:10:27.715Z,981.61
2023-04-07T10:11:27.734Z,981.62
2023-04-07T10:12:27.679Z,981.64
2023-04-07T10:13:27.698Z,981.60
2023-04-07T10:14:27.791Z,981.66
2023-04-07T10:15:27.930Z,981.64
2023-04-07T10:16:28.686Z,981.64
2023-04-07T10:17:27.958Z,981.62
2023-04-07T10:18:27.623Z,981.67
2023-04-07T10:19:27.629Z,981.64
2023-04-07T10:20:27.653Z,981.67
2023-04-07T10:21:27.628Z,981.70
2023-04-07T10:22:27.604Z,981.71
2023-04-07T10:23:28.408Z,981.72
2023-04-07T10:24:28.485Z,981.74
2023-04-07T10:25:28.646Z,981.74
2023-04-07T10:26:27.697Z,981.78
2023-04-07T10:27:27.832Z,981.77
2023-04-07T10:28:27.573Z,981.77
2023-04-07T10:29:27.552Z,981.79
2023-04-07T10:30:27.979Z,981.77
2023-04-07T10:31:27.656Z,981.75
2023-04-07T10:32:27.611Z,981.77
2023-04-07T10:33:27.468Z,981.76
2023-04-07T10:34:27.794Z,981.80
2023-04-07T10:35:28.313Z,981.76
2023-04-07T10:36:27.968Z,981.79
2023-04-07T10:37:27.622Z,981.77
2023-04-07T10:38:27.537Z,981.76
2023-04-07T10:39:27.471Z,981.78
2023-04-07T10:40:27.594Z,981.81
2023-04-07T10:41:27.397Z,981.82
2023-04-07T10:42:27.563Z,981.76
2023-04-07T10:43:27.751Z,981.78
2023-04-07T10:44:27.765Z,981.79
2023-04-07T10:45:28.037Z,981.83
2023-04-07T10:46:27.513Z,981.80
2023-04-07T10:47:27.364Z,981.81
2023-04-07T10:48:27.423Z,981.78
2023-04-07T10:49:27.344Z,981.80
2023-04-07T10:50:27.731Z,981.82
2023-04-07T10:51:27.391Z,981.81
2023-04-07T10:52:30.216Z,981.82
2023-04-07T10:53:28.951Z,981.85
2023-04-07T10:54:29.213Z,981.89
2023-04-07T10:55:28.054Z,981.84
2023-04-07T10:56:27.357Z,981.87
2023-04-07T10:57:27.469Z,981.86
2023-04-07T10:58:27.587Z,981.93
2023-04-07T10:59:27.200Z,981.90
2023-04-07T11:00:27.232Z,981.92
2023-04-07T11:01:27.271Z,981.95
2023-04-07T11:02:27.414Z,981.98
2023-04-07T11:03:27.226Z,981.96
2023-04-07T11:04:27.259Z,981.96
2023-04-07T11:05:27.133Z,981.95
2023-04-07T11:06:27.878Z,981.98
2023-04-07T11:07:27.176Z,981.98
2023-04-07T11:08:27.143Z,982.00
2023-04-07T11:09:27.174Z,982.02
2023-04-07T11:10:27.202Z,982.01
2023-04-07T11:11:27.128Z,982.06
2023-04-07T11:12:27.116Z,982.06
2023-04-07T11:13:27.016Z,982.03
2023-04-07T11:14:27.009Z,982.02
2023-04-07T11:15:27.059Z,982.08
2023-04-07T11:16:27.013Z,982.07
2023-04-07T11:17:27.044Z,982.06
2023-04-07T11:18:26.958Z,982.10
2023-04-07T11:19:26.938Z,982.11
2023-04-07T11:20:27.014Z,982.08
2023-04-07T11:21:26.934Z,982.08
2023-04-07T11:22:30.258Z,982.14
2023-04-07T11:23:26.980Z,982.14
2023-04-07T11:24:26.913Z,982.15
2023-04-07T11:25:27.822Z,982.14
2023-04-07T11:26:26.880Z,982.13
2023-04-07T11:27:27.024Z,982.15
2023-04-07T11:28:26.866Z,982.18
2023-04-07T11:29:28.037Z,982.20
2023-04-07T11:30:27.063Z,982.21
2023-04-07T11:31:26.863Z,982.22
2023-04-07T11:32:27.017Z,982.23
2023-04-07T11:33:26.831Z,982.29
2023-04-07T11:34:26.804Z,982.28
2023-04-07T11:35:26.746Z,982.29
2023-04-07T11:36:26.771Z,982.29
2023-04-07T11:37:26.870Z,982.30
2023-04-07T11:38:27.035Z,982.31
2023-04-07T11:39:26.707Z,982.31
2023-04-07T11:40:26.796Z,982.32
2023-04-07T11:41:26.691Z,982.32
2023-04-07T11:42:27.521Z,982.36
2023-04-07T11:43:27.387Z,982.38
2023-04-07T11:44:27.579Z,982.33
2023-04-07T11:45:27.560Z,982.37
2023-04-07T11:46:27.507Z,982.38
2023-04-07T11:47:26.734Z,982.38
2023-04-07T11:48:26.645Z,982.36
2023-04-07T11:49:26.643Z,982.36
2023-04-07T11:50:26.665Z,982.37
2023-04-07T11:51:26.659Z,982.41
2023-04-07T11:52:26.590Z,982.41
2023-04-07T11:53:26.576Z,982.41
2023-04-07T11:54:26.732Z,982.41
2023-04-07T11:55:26.679Z,982.44
2023-04-07T11:56:26.589Z,982.46
2023-04-07T11:57:26.585Z,982.44
2023-04-07T11:58:26.568Z,982.46
2023-04-07T11:59:26.540Z,982.50
2023-04-07T12:00:26.537Z,982.44
2023-04-07T12:01:26.479Z,982.45
2023-04-07T12:02:26.716Z,982.45
2023-04-07T12:03:26.555Z,982.51
2023-04-07T12:04:26.630Z,982.45
2023-04-07T12:05:26.605Z,982.48
2023-04-07T12:06:26.533Z,982.43
2023-04-07T12:07:27.958Z,982.48
2023-04-07T12:08:26.491Z,982.51
2023-04-07T12:09:26.469Z,982.51
2023-04-07T12:10:26.430Z,982.50
2023-04-07T12:11:26.508Z,982.53
2023-04-07T12:12:26.446Z,982.54
2023-04-07T12:13:26.345Z,982.52
2023-04-07T12:14:26.440Z,982.56
2023-04-07T12:15:26.417Z,982.58
2023-04-07T12:16:26.443Z,982.56
2023-04-07T12:17:26.430Z,982.53
2023-04-07T12:18:26.300Z,982.57
2023-04-07T12:19:26.396Z,982.57
2023-04-07T12:20:26.375Z,982.59
2023-04-07T12:21:26.363Z,982.59
2023-04-07T12:22:26.279Z,982.60
2023-04-07T12:23:26.257Z,982.56
2023-04-07T12:24:26.247Z,982.56
2023-04-07T12:25:26.220Z,982.61
2023-04-07T12:26:26.378Z,982.58
2023-04-07T12:27:39.626Z,982.62
2023-04-07T12:28:27.204Z,982.59